sensor_id;sensor_type;location;lat;lon;timestamp;P1;durP1;ratioP1;P2;durP2;ratioP2
29362;SDS011;16349;53.672;10.014;2022-08-19T00:00:48;17.97;;;13.90;;
29362;SDS011;16349;53.672;10.014;2022-08-19T00:03:16;16.03;;;13.40;;
29362;SDS011;16349;53.672;10.014;2022-08-19T00:05:43;14.33;;;12.67;;
29362;SDS011;16349;53.672;10.014;2022-08-19T00:08:12;12.30;;;11.10;;
29362;SDS011;16349;53.672;10.014;2022-08-19T00:10:39;14.37;;;12.47;;
29362;SDS011;16349;53.672;10.014;2022-08-19T00:13:05;17.77;;;13.80;;
29362;SDS011;16349;53.672;10.014;2022-08-19T00:15:32;17.63;;;14.97;;
29362;SDS011;16349;53.672;10.014;2022-08-19T00:17:59;18.93;;;14.37;;
29362;SDS011;16349;53.672;10.014;2022-08-19T00:20:26;19.67;;;14.17;;
29362;SDS011;16349;53.672;10.014;2022-08-19T00:22:54;19.20;;;15.30;;
29362;SDS011;16349;53.672;10.014;2022-08-19T00:25:22;16.83;;;14.67;;
29362;SDS011;16349;53.672;10.014;2022-08-19T00:27:49;19.47;;;14.43;;
29362;SDS011;16349;53.672;10.014;2022-08-19T00:30:16;20.60;;;15.13;;
29362;SDS011;16349;53.672;10.014;2022-08-19T00:32:43;22.03;;;15.77;;
29362;SDS011;16349;53.672;10.014;2022-08-19T00:35:10;23.80;;;16.00;;
29362;SDS011;16349;53.672;10.014;2022-08-19T00:37:37;22.33;;;16.00;;
29362;SDS011;16349;53.672;10.014;2022-08-19T00:40:09;23.70;;;17.00;;
29362;SDS011;16349;53.672;10.014;2022-08-19T00:42:39;19.60;;;15.97;;
29362;SDS011;16349;53.672;10.014;2022-08-19T00:45:09;20.07;;;15.93;;
29362;SDS011;16349;53.672;10.014;2022-08-19T00:47:38;21.03;;;15.40;;
29362;SDS011;16349;53.672;10.014;2022-08-19T00:50:06;20.60;;;15.27;;
29362;SDS011;16349;53.672;10.014;2022-08-19T00:52:37;22.00;;;16.57;;
29362;SDS011;16349;53.672;10.014;2022-08-19T00:55:10;25.13;;;16.60;;
29362;SDS011;16349;53.672;10.014;2022-08-19T00:57:42;19.93;;;16.53;;
29362;SDS011;16349;53.672;10.014;2022-08-19T01:00:13;20.10;;;15.83;;
29362;SDS011;16349;53.672;10.014;2022-08-19T01:02:42;18.37;;;14.93;;
29362;SDS011;16349;53.672;10.014;2022-08-19T01:05:11;20.73;;;17.20;;
29362;SDS011;16349;53.672;10.014;2022-08-19T01:07:40;25.97;;;16.57;;
29362;SDS011;16349;53.672;10.014;2022-08-19T01:10:11;21.10;;;16.57;;
29362;SDS011;16349;53.672;10.014;2022-08-19T01:12:42;25.00;;;17.43;;
29362;SDS011;16349;53.672;10.014;2022-08-19T01:15:11;23.57;;;18.00;;
29362;SDS011;16349;53.672;10.014;2022-08-19T01:17:40;27.67;;;19.27;;
29362;SDS011;16349;53.672;10.014;2022-08-19T01:20:09;25.07;;;20.17;;
29362;SDS011;16349;53.672;10.014;2022-08-19T01:22:42;27.77;;;19.60;;
29362;SDS011;16349;53.672;10.014;2022-08-19T01:25:12;29.07;;;18.40;;
29362;SDS011;16349;53.672;10.014;2022-08-19T01:27:41;31.87;;;20.63;;
29362;SDS011;16349;53.672;10.014;2022-08-19T01:30:10;26.23;;;19.20;;
29362;SDS011;16349;53.672;10.014;2022-08-19T01:32:38;26.13;;;18.23;;
29362;SDS011;16349;53.672;10.014;2022-08-19T01:35:06;27.97;;;20.43;;
29362;SDS011;16349;53.672;10.014;2022-08-19T01:37:42;28.17;;;19.53;;
29362;SDS011;16349;53.672;10.014;2022-08-19T01:40:10;23.97;;;19.43;;
29362;SDS011;16349;53.672;10.014;2022-08-19T01:42:37;24.63;;;18.70;;
29362;SDS011;16349;53.672;10.014;2022-08-19T01:45:06;33.07;;;20.80;;
29362;SDS011;16349;53.672;10.014;2022-08-19T01:47:34;28.43;;;19.33;;
29362;SDS011;16349;53.672;10.014;2022-08-19T01:50:01;29.57;;;19.87;;
29362;SDS011;16349;53.672;10.014;2022-08-19T01:52:29;29.87;;;19.83;;
29362;SDS011;16349;53.672;10.014;2022-08-19T01:54:57;23.77;;;19.27;;
29362;SDS011;16349;53.672;10.014;2022-08-19T01:57:24;32.17;;;20.93;;
29362;SDS011;16349;53.672;10.014;2022-08-19T01:59:51;31.77;;;20.23;;
29362;SDS011;16349;53.672;10.014;2022-08-19T02:02:19;29.43;;;19.90;;
29362;SDS011;16349;53.672;10.014;2022-08-19T02:04:46;31.17;;;20.97;;
29362;SDS011;16349;53.672;10.014;2022-08-19T02:07:13;30.73;;;19.27;;
29362;SDS011;16349;53.672;10.014;2022-08-19T02:09:40;31.10;;;19.50;;
29362;SDS011;16349;53.672;10.014;2022-08-19T02:12:08;31.57;;;20.10;;
29362;SDS011;16349;53.672;10.014;2022-08-19T02:14:36;31.03;;;20.20;;
29362;SDS011;16349;53.672;10.014;2022-08-19T02:17:03;31.23;;;19.43;;
29362;SDS011;16349;53.672;10.014;2022-08-19T02:19:30;37.27;;;19.87;;
29362;SDS011;16349;53.672;10.014;2022-08-19T02:21:58;31.93;;;20.60;;
29362;SDS011;16349;53.672;10.014;2022-08-19T02:24:25;36.73;;;20.07;;
29362;SDS011;16349;53.672;10.014;2022-08-19T02:26:52;40.33;;;22.00;;
29362;SDS011;16349;53.672;10.014;2022-08-19T02:29:21;31.97;;;19.97;;
29362;SDS011;16349;53.672;10.014;2022-08-19T02:31:48;35.17;;;21.27;;
29362;SDS011;16349;53.672;10.014;2022-08-19T02:34:16;42.87;;;22.43;;
29362;SDS011;16349;53.672;10.014;2022-08-19T02:36:44;38.23;;;22.97;;
29362;SDS011;16349;53.672;10.014;2022-08-19T02:39:11;41.33;;;23.53;;
29362;SDS011;16349;53.672;10.014;2022-08-19T02:41:36;41.40;;;22.83;;
29362;SDS011;16349;53.672;10.014;2022-08-19T02:44:04;35.37;;;22.60;;
29362;SDS011;16349;53.672;10.014;2022-08-19T02:46:32;41.80;;;22.87;;
29362;SDS011;16349;53.672;10.014;2022-08-19T02:49:01;35.17;;;22.00;;
29362;SDS011;16349;53.672;10.014;2022-08-19T02:51:31;31.93;;;20.93;;
29362;SDS011;16349;53.672;10.014;2022-08-19T02:53:59;38.80;;;20.53;;
29362;SDS011;16349;53.672;10.014;2022-08-19T02:56:27;38.60;;;21.60;;
29362;SDS011;16349;53.672;10.014;2022-08-19T02:58:54;35.60;;;21.00;;
29362;SDS011;16349;53.672;10.014;2022-08-19T03:01:23;29.60;;;19.30;;
29362;SDS011;16349;53.672;10.014;2022-08-19T03:03:54;32.00;;;18.47;;
29362;SDS011;16349;53.672;10.014;2022-08-19T03:06:22;26.07;;;18.43;;
29362;SDS011;16349;53.672;10.014;2022-08-19T03:08:49;30.20;;;17.50;;
29362;SDS011;16349;53.672;10.014;2022-08-19T03:11:18;25.67;;;17.57;;
29362;SDS011;16349;53.672;10.014;2022-08-19T03:13:47;27.67;;;16.80;;
29362;SDS011;16349;53.672;10.014;2022-08-19T03:16:16;28.33;;;18.30;;
29362;SDS011;16349;53.672;10.014;2022-08-19T03:18:44;29.90;;;18.17;;
29362;SDS011;16349;53.672;10.014;2022-08-19T03:21:15;29.83;;;18.47;;
29362;SDS011;16349;53.672;10.014;2022-08-19T03:23:43;29.80;;;17.83;;
29362;SDS011;16349;53.672;10.014;2022-08-19T03:26:11;27.90;;;17.00;;
29362;SDS011;16349;53.672;10.014;2022-08-19T03:28:39;23.77;;;17.03;;
29362;SDS011;16349;53.672;10.014;2022-08-19T03:31:08;29.47;;;18.80;;
29362;SDS011;16349;53.672;10.014;2022-08-19T03:33:38;28.17;;;17.30;;
29362;SDS011;16349;53.672;10.014;2022-08-19T03:36:07;29.27;;;17.53;;
29362;SDS011;16349;53.672;10.014;2022-08-19T03:38:38;24.73;;;17.00;;
29362;SDS011;16349;53.672;10.014;2022-08-19T03:41:07;36.77;;;19.20;;
29362;SDS011;16349;53.672;10.014;2022-08-19T03:43:35;28.43;;;17.67;;
29362;SDS011;16349;53.672;10.014;2022-08-19T03:46:04;29.77;;;19.87;;
29362;SDS011;16349;53.672;10.014;2022-08-19T03:48:35;30.30;;;17.83;;
29362;SDS011;16349;53.672;10.014;2022-08-19T03:51:03;28.17;;;18.73;;
29362;SDS011;16349;53.672;10.014;2022-08-19T03:53:32;26.77;;;17.87;;
29362;SDS011;16349;53.672;10.014;2022-08-19T03:56:01;24.77;;;17.13;;
29362;SDS011;16349;53.672;10.014;2022-08-19T03:58:29;30.70;;;20.17;;
29362;SDS011;16349;53.672;10.014;2022-08-19T04:00:56;29.40;;;19.53;;
29362;SDS011;16349;53.672;10.014;2022-08-19T04:03:23;34.63;;;20.77;;
29362;SDS011;16349;53.672;10.014;2022-08-19T04:05:52;31.00;;;19.90;;
29362;SDS011;16349;53.672;10.014;2022-08-19T04:08:19;30.80;;;20.27;;
29362;SDS011;16349;53.672;10.014;2022-08-19T04:10:47;30.73;;;18.43;;
29362;SDS011;16349;53.672;10.014;2022-08-19T04:13:17;36.97;;;20.27;;
29362;SDS011;16349;53.672;10.014;2022-08-19T04:15:45;38.13;;;20.07;;
29362;SDS011;16349;53.672;10.014;2022-08-19T04:18:12;35.53;;;20.87;;
29362;SDS011;16349;53.672;10.014;2022-08-19T04:20:40;33.20;;;20.23;;
29362;SDS011;16349;53.672;10.014;2022-08-19T04:23:08;31.80;;;19.77;;
29362;SDS011;16349;53.672;10.014;2022-08-19T04:25:37;37.77;;;20.33;;
29362;SDS011;16349;53.672;10.014;2022-08-19T04:28:05;36.10;;;22.03;;
29362;SDS011;16349;53.672;10.014;2022-08-19T04:30:38;42.00;;;21.70;;
29362;SDS011;16349;53.672;10.014;2022-08-19T04:33:06;33.77;;;22.13;;
29362;SDS011;16349;53.672;10.014;2022-08-19T04:35:34;41.00;;;22.43;;
29362;SDS011;16349;53.672;10.014;2022-08-19T04:38:03;40.53;;;23.63;;
29362;SDS011;16349;53.672;10.014;2022-08-19T04:40:29;36.17;;;23.00;;
29362;SDS011;16349;53.672;10.014;2022-08-19T04:43:14;42.67;;;24.80;;
29362;SDS011;16349;53.672;10.014;2022-08-19T04:45:43;46.03;;;23.40;;
29362;SDS011;16349;53.672;10.014;2022-08-19T04:48:10;41.33;;;23.37;;
29362;SDS011;16349;53.672;10.014;2022-08-19T04:50:39;37.97;;;24.10;;
29362;SDS011;16349;53.672;10.014;2022-08-19T04:53:08;45.60;;;25.70;;
29362;SDS011;16349;53.672;10.014;2022-08-19T04:55:38;44.90;;;25.47;;
29362;SDS011;16349;53.672;10.014;2022-08-19T04:58:06;41.90;;;26.33;;
29362;SDS011;16349;53.672;10.014;2022-08-19T05:00:33;49.27;;;26.67;;
29362;SDS011;16349;53.672;10.014;2022-08-19T05:03:01;45.57;;;27.27;;
29362;SDS011;16349;53.672;10.014;2022-08-19T05:05:28;48.73;;;27.70;;
29362;SDS011;16349;53.672;10.014;2022-08-19T05:07:57;50.73;;;28.93;;
29362;SDS011;16349;53.672;10.014;2022-08-19T05:10:23;46.63;;;28.60;;
29362;SDS011;16349;53.672;10.014;2022-08-19T05:12:50;56.40;;;30.93;;
29362;SDS011;16349;53.672;10.014;2022-08-19T05:15:17;46.80;;;27.53;;
29362;SDS011;16349;53.672;10.014;2022-08-19T05:17:45;43.37;;;28.50;;
29362;SDS011;16349;53.672;10.014;2022-08-19T05:20:26;49.07;;;26.97;;
29362;SDS011;16349;53.672;10.014;2022-08-19T05:23:13;47.63;;;28.17;;
29362;SDS011;16349;53.672;10.014;2022-08-19T05:25:41;42.47;;;27.57;;
29362;SDS011;16349;53.672;10.014;2022-08-19T05:28:08;39.50;;;24.93;;
29362;SDS011;16349;53.672;10.014;2022-08-19T05:30:35;46.17;;;26.10;;
29362;SDS011;16349;53.672;10.014;2022-08-19T05:33:02;38.27;;;23.70;;
29362;SDS011;16349;53.672;10.014;2022-08-19T05:35:30;38.90;;;23.33;;
29362;SDS011;16349;53.672;10.014;2022-08-19T05:37:57;40.03;;;23.53;;
29362;SDS011;16349;53.672;10.014;2022-08-19T05:40:24;38.33;;;22.60;;
29362;SDS011;16349;53.672;10.014;2022-08-19T05:42:51;29.17;;;20.60;;
29362;SDS011;16349;53.672;10.014;2022-08-19T05:45:18;33.13;;;20.77;;
29362;SDS011;16349;53.672;10.014;2022-08-19T05:47:46;31.43;;;21.00;;
29362;SDS011;16349;53.672;10.014;2022-08-19T05:50:14;31.00;;;19.53;;
29362;SDS011;16349;53.672;10.014;2022-08-19T05:52:43;35.70;;;19.67;;
29362;SDS011;16349;53.672;10.014;2022-08-19T05:55:11;29.37;;;19.37;;
29362;SDS011;16349;53.672;10.014;2022-08-19T05:57:38;32.77;;;19.80;;
29362;SDS011;16349;53.672;10.014;2022-08-19T06:00:05;28.03;;;18.83;;
29362;SDS011;16349;53.672;10.014;2022-08-19T06:02:37;30.80;;;18.67;;
29362;SDS011;16349;53.672;10.014;2022-08-19T06:05:05;29.77;;;21.00;;
29362;SDS011;16349;53.672;10.014;2022-08-19T06:07:34;29.17;;;19.87;;
29362;SDS011;16349;53.672;10.014;2022-08-19T06:10:03;27.83;;;18.97;;
29362;SDS011;16349;53.672;10.014;2022-08-19T06:12:30;26.37;;;17.63;;
29362;SDS011;16349;53.672;10.014;2022-08-19T06:14:59;31.43;;;18.53;;
29362;SDS011;16349;53.672;10.014;2022-08-19T06:17:26;32.70;;;20.17;;
29362;SDS011;16349;53.672;10.014;2022-08-19T06:19:55;29.70;;;19.43;;
29362;SDS011;16349;53.672;10.014;2022-08-19T06:22:23;29.80;;;19.80;;
29362;SDS011;16349;53.672;10.014;2022-08-19T06:24:49;27.23;;;17.90;;
29362;SDS011;16349;53.672;10.014;2022-08-19T06:27:19;27.13;;;17.77;;
29362;SDS011;16349;53.672;10.014;2022-08-19T06:29:46;28.65;;;19.60;;
29362;SDS011;16349;53.672;10.014;2022-08-19T06:32:14;29.23;;;19.70;;
29362;SDS011;16349;53.672;10.014;2022-08-19T06:34:43;28.97;;;18.77;;
29362;SDS011;16349;53.672;10.014;2022-08-19T06:37:10;28.53;;;18.33;;
29362;SDS011;16349;53.672;10.014;2022-08-19T06:39:37;32.00;;;21.35;;
29362;SDS011;16349;53.672;10.014;2022-08-19T06:42:06;25.43;;;17.90;;
29362;SDS011;16349;53.672;10.014;2022-08-19T06:44:38;28.20;;;18.37;;
29362;SDS011;16349;53.672;10.014;2022-08-19T06:47:07;27.57;;;18.73;;
29362;SDS011;16349;53.672;10.014;2022-08-19T06:49:35;29.00;;;17.63;;
29362;SDS011;16349;53.672;10.014;2022-08-19T06:52:03;31.98;;;20.73;;
29362;SDS011;16349;53.672;10.014;2022-08-19T06:54:30;27.93;;;18.50;;
29362;SDS011;16349;53.672;10.014;2022-08-19T06:56:58;26.23;;;20.20;;
29362;SDS011;16349;53.672;10.014;2022-08-19T06:59:27;32.00;;;20.67;;
29362;SDS011;16349;53.672;10.014;2022-08-19T07:02:00;25.70;;;17.60;;
29362;SDS011;16349;53.672;10.014;2022-08-19T07:04:30;29.63;;;20.83;;
29362;SDS011;16349;53.672;10.014;2022-08-19T07:07:00;26.00;;;18.23;;
29362;SDS011;16349;53.672;10.014;2022-08-19T07:09:31;31.27;;;17.60;;
29362;SDS011;16349;53.672;10.014;2022-08-19T07:11:58;22.13;;;17.07;;
29362;SDS011;16349;53.672;10.014;2022-08-19T07:14:26;25.17;;;17.03;;
29362;SDS011;16349;53.672;10.014;2022-08-19T07:16:54;28.13;;;17.87;;
29362;SDS011;16349;53.672;10.014;2022-08-19T07:19:24;29.40;;;17.13;;
29362;SDS011;16349;53.672;10.014;2022-08-19T07:21:53;27.17;;;19.35;;
29362;SDS011;16349;53.672;10.014;2022-08-19T07:24:21;23.87;;;16.97;;
29362;SDS011;16349;53.672;10.014;2022-08-19T07:26:50;24.47;;;16.93;;
29362;SDS011;16349;53.672;10.014;2022-08-19T07:29:18;24.60;;;17.53;;
29362;SDS011;16349;53.672;10.014;2022-08-19T07:31:48;23.67;;;17.77;;
29362;SDS011;16349;53.672;10.014;2022-08-19T07:34:16;28.67;;;18.17;;
29362;SDS011;16349;53.672;10.014;2022-08-19T07:36:45;25.47;;;17.47;;
29362;SDS011;16349;53.672;10.014;2022-08-19T07:39:13;29.70;;;17.23;;
29362;SDS011;16349;53.672;10.014;2022-08-19T07:41:43;22.47;;;16.37;;
29362;SDS011;16349;53.672;10.014;2022-08-19T07:44:11;25.80;;;18.73;;
29362;SDS011;16349;53.672;10.014;2022-08-19T07:46:42;28.10;;;18.43;;
29362;SDS011;16349;53.672;10.014;2022-08-19T07:49:12;26.30;;;17.83;;
29362;SDS011;16349;53.672;10.014;2022-08-19T07:51:42;22.97;;;17.90;;
29362;SDS011;16349;53.672;10.014;2022-08-19T07:54:11;27.70;;;17.77;;
29362;SDS011;16349;53.672;10.014;2022-08-19T07:56:38;23.13;;;16.40;;
29362;SDS011;16349;53.672;10.014;2022-08-19T07:59:05;27.67;;;18.37;;
29362;SDS011;16349;53.672;10.014;2022-08-19T08:01:32;28.60;;;18.10;;
29362;SDS011;16349;53.672;10.014;2022-08-19T08:03:59;28.23;;;18.70;;
29362;SDS011;16349;53.672;10.014;2022-08-19T08:06:45;27.23;;;16.83;;
29362;SDS011;16349;53.672;10.014;2022-08-19T08:09:31;28.10;;;18.73;;
29362;SDS011;16349;53.672;10.014;2022-08-19T08:12:01;27.53;;;18.93;;
29362;SDS011;16349;53.672;10.014;2022-08-19T08:14:31;26.87;;;18.93;;
29362;SDS011;16349;53.672;10.014;2022-08-19T08:17:00;26.03;;;18.13;;
29362;SDS011;16349;53.672;10.014;2022-08-19T08:19:28;25.23;;;17.70;;
29362;SDS011;16349;53.672;10.014;2022-08-19T08:21:57;27.70;;;17.80;;
29362;SDS011;16349;53.672;10.014;2022-08-19T08:24:26;27.53;;;17.60;;
29362;SDS011;16349;53.672;10.014;2022-08-19T08:26:55;21.83;;;16.80;;
29362;SDS011;16349;53.672;10.014;2022-08-19T08:29:23;25.27;;;16.40;;
29362;SDS011;16349;53.672;10.014;2022-08-19T08:31:51;23.03;;;16.30;;
29362;SDS011;16349;53.672;10.014;2022-08-19T08:34:19;26.17;;;16.07;;
29362;SDS011;16349;53.672;10.014;2022-08-19T08:36:46;28.57;;;17.43;;
29362;SDS011;16349;53.672;10.014;2022-08-19T08:39:15;26.23;;;16.70;;
29362;SDS011;16349;53.672;10.014;2022-08-19T08:41:44;26.37;;;17.57;;
29362;SDS011;16349;53.672;10.014;2022-08-19T08:44:16;29.30;;;17.13;;
29362;SDS011;16349;53.672;10.014;2022-08-19T08:46:46;26.20;;;17.77;;
29362;SDS011;16349;53.672;10.014;2022-08-19T08:49:29;29.57;;;16.80;;
29362;SDS011;16349;53.672;10.014;2022-08-19T08:52:03;26.07;;;17.50;;
29362;SDS011;16349;53.672;10.014;2022-08-19T08:54:37;26.20;;;17.03;;
29362;SDS011;16349;53.672;10.014;2022-08-19T08:57:09;24.83;;;16.57;;
29362;SDS011;16349;53.672;10.014;2022-08-19T08:59:39;26.53;;;16.93;;
29362;SDS011;16349;53.672;10.014;2022-08-19T09:02:07;25.27;;;16.70;;
29362;SDS011;16349;53.672;10.014;2022-08-19T09:04:35;26.27;;;17.67;;
29362;SDS011;16349;53.672;10.014;2022-08-19T09:07:08;25.40;;;16.77;;
29362;SDS011;16349;53.672;10.014;2022-08-19T09:09:46;23.73;;;17.00;;
29362;SDS011;16349;53.672;10.014;2022-08-19T09:12:16;25.83;;;18.20;;
29362;SDS011;16349;53.672;10.014;2022-08-19T09:14:51;25.23;;;17.23;;
29362;SDS011;16349;53.672;10.014;2022-08-19T09:17:24;24.23;;;16.27;;
29362;SDS011;16349;53.672;10.014;2022-08-19T09:19:56;28.20;;;16.50;;
29362;SDS011;16349;53.672;10.014;2022-08-19T09:22:29;22.33;;;16.43;;
29362;SDS011;16349;53.672;10.014;2022-08-19T09:24:57;24.97;;;17.27;;
29362;SDS011;16349;53.672;10.014;2022-08-19T09:27:25;25.73;;;17.67;;
29362;SDS011;16349;53.672;10.014;2022-08-19T09:29:53;24.33;;;17.37;;
29362;SDS011;16349;53.672;10.014;2022-08-19T09:32:21;25.00;;;17.70;;
29362;SDS011;16349;53.672;10.014;2022-08-19T09:34:49;26.30;;;18.60;;
29362;SDS011;16349;53.672;10.014;2022-08-19T09:37:19;24.47;;;17.03;;
29362;SDS011;16349;53.672;10.014;2022-08-19T09:39:46;25.57;;;17.20;;
29362;SDS011;16349;53.672;10.014;2022-08-19T09:42:14;27.53;;;16.80;;
29362;SDS011;16349;53.672;10.014;2022-08-19T09:44:41;27.00;;;16.97;;
29362;SDS011;16349;53.672;10.014;2022-08-19T09:47:09;26.23;;;16.93;;
29362;SDS011;16349;53.672;10.014;2022-08-19T09:49:38;29.03;;;18.00;;
29362;SDS011;16349;53.672;10.014;2022-08-19T09:52:05;23.73;;;17.37;;
29362;SDS011;16349;53.672;10.014;2022-08-19T09:54:34;25.80;;;16.53;;
29362;SDS011;16349;53.672;10.014;2022-08-19T09:57:00;28.27;;;17.17;;
29362;SDS011;16349;53.672;10.014;2022-08-19T09:59:28;30.57;;;19.00;;
29362;SDS011;16349;53.672;10.014;2022-08-19T10:01:55;25.10;;;16.73;;
29362;SDS011;16349;53.672;10.014;2022-08-19T10:04:22;25.37;;;16.87;;
29362;SDS011;16349;53.672;10.014;2022-08-19T10:07:09;24.93;;;17.13;;
29362;SDS011;16349;53.672;10.014;2022-08-19T10:09:36;24.03;;;16.70;;
29362;SDS011;16349;53.672;10.014;2022-08-19T10:12:04;24.23;;;17.10;;
29362;SDS011;16349;53.672;10.014;2022-08-19T10:14:32;25.47;;;17.90;;
29362;SDS011;16349;53.672;10.014;2022-08-19T10:17:00;23.40;;;17.03;;
29362;SDS011;16349;53.672;10.014;2022-08-19T10:19:28;26.40;;;16.80;;
29362;SDS011;16349;53.672;10.014;2022-08-19T10:22:02;19.73;;;15.93;;
29362;SDS011;16349;53.672;10.014;2022-08-19T10:24:31;25.03;;;16.30;;
29362;SDS011;16349;53.672;10.014;2022-08-19T10:26:59;21.17;;;16.50;;
29362;SDS011;16349;53.672;10.014;2022-08-19T10:29:28;22.65;;;15.45;;
29362;SDS011;16349;53.672;10.014;2022-08-19T10:31:56;20.85;;;16.02;;
29362;SDS011;16349;53.672;10.014;2022-08-19T10:34:25;21.23;;;15.07;;
29362;SDS011;16349;53.672;10.014;2022-08-19T10:36:52;25.43;;;16.87;;
29362;SDS011;16349;53.672;10.014;2022-08-19T10:39:19;20.77;;;16.17;;
29362;SDS011;16349;53.672;10.014;2022-08-19T10:41:46;17.73;;;15.73;;
29362;SDS011;16349;53.672;10.014;2022-08-19T10:44:13;19.38;;;15.95;;
29362;SDS011;16349;53.672;10.014;2022-08-19T10:46:42;21.48;;;14.98;;
29362;SDS011;16349;53.672;10.014;2022-08-19T10:49:13;21.95;;;16.08;;
29362;SDS011;16349;53.672;10.014;2022-08-19T10:51:40;22.55;;;15.20;;
29362;SDS011;16349;53.672;10.014;2022-08-19T10:54:25;20.30;;;14.63;;
29362;SDS011;16349;53.672;10.014;2022-08-19T10:57:13;22.70;;;17.50;;
29362;SDS011;16349;53.672;10.014;2022-08-19T10:59:40;21.00;;;14.35;;
29362;SDS011;16349;53.672;10.014;2022-08-19T11:02:07;21.13;;;14.47;;
29362;SDS011;16349;53.672;10.014;2022-08-19T11:04:38;23.67;;;14.70;;
29362;SDS011;16349;53.672;10.014;2022-08-19T11:07:06;24.20;;;14.48;;
29362;SDS011;16349;53.672;10.014;2022-08-19T11:09:37;21.87;;;14.70;;
29362;SDS011;16349;53.672;10.014;2022-08-19T11:12:05;18.88;;;14.90;;
29362;SDS011;16349;53.672;10.014;2022-08-19T11:14:33;21.60;;;14.77;;
29362;SDS011;16349;53.672;10.014;2022-08-19T11:17:00;20.02;;;14.07;;
29362;SDS011;16349;53.672;10.014;2022-08-19T11:19:28;18.80;;;14.60;;
29362;SDS011;16349;53.672;10.014;2022-08-19T11:21:57;17.80;;;13.23;;
29362;SDS011;16349;53.672;10.014;2022-08-19T11:24:25;17.40;;;13.98;;
29362;SDS011;16349;53.672;10.014;2022-08-19T11:26:53;21.83;;;14.43;;
29362;SDS011;16349;53.672;10.014;2022-08-19T11:29:23;16.55;;;14.00;;
29362;SDS011;16349;53.672;10.014;2022-08-19T11:31:53;19.92;;;14.57;;
29362;SDS011;16349;53.672;10.014;2022-08-19T11:34:20;14.45;;;12.13;;
29362;SDS011;16349;53.672;10.014;2022-08-19T11:36:49;15.07;;;11.75;;
29362;SDS011;16349;53.672;10.014;2022-08-19T11:39:19;20.08;;;13.75;;
29362;SDS011;16349;53.672;10.014;2022-08-19T11:41:47;18.08;;;13.63;;
29362;SDS011;16349;53.672;10.014;2022-08-19T11:44:14;15.68;;;13.25;;
29362;SDS011;16349;53.672;10.014;2022-08-19T11:46:42;18.73;;;12.57;;
29362;SDS011;16349;53.672;10.014;2022-08-19T11:49:10;14.73;;;13.15;;
29362;SDS011;16349;53.672;10.014;2022-08-19T11:51:37;15.25;;;12.68;;
29362;SDS011;16349;53.672;10.014;2022-08-19T11:54:05;18.38;;;13.35;;
29362;SDS011;16349;53.672;10.014;2022-08-19T11:56:33;15.20;;;12.75;;
29362;SDS011;16349;53.672;10.014;2022-08-19T11:59:00;14.25;;;11.90;;
29362;SDS011;16349;53.672;10.014;2022-08-19T12:01:28;12.77;;;11.38;;
29362;SDS011;16349;53.672;10.014;2022-08-19T12:03:55;14.55;;;11.63;;
29362;SDS011;16349;53.672;10.014;2022-08-19T12:06:24;14.93;;;12.52;;
29362;SDS011;16349;53.672;10.014;2022-08-19T12:08:53;12.07;;;10.88;;
29362;SDS011;16349;53.672;10.014;2022-08-19T12:11:20;13.18;;;10.88;;
29362;SDS011;16349;53.672;10.014;2022-08-19T12:13:49;14.23;;;11.57;;
29362;SDS011;16349;53.672;10.014;2022-08-19T12:16:16;13.50;;;11.65;;
29362;SDS011;16349;53.672;10.014;2022-08-19T12:18:44;14.38;;;12.70;;
29362;SDS011;16349;53.672;10.014;2022-08-19T12:21:11;16.63;;;12.35;;
29362;SDS011;16349;53.672;10.014;2022-08-19T12:23:39;15.43;;;11.55;;
29362;SDS011;16349;53.672;10.014;2022-08-19T12:26:05;13.30;;;11.90;;
29362;SDS011;16349;53.672;10.014;2022-08-19T12:28:33;13.40;;;11.90;;
29362;SDS011;16349;53.672;10.014;2022-08-19T12:31:01;13.60;;;11.27;;
29362;SDS011;16349;53.672;10.014;2022-08-19T12:33:28;14.32;;;12.27;;
29362;SDS011;16349;53.672;10.014;2022-08-19T12:35:59;15.38;;;12.95;;
29362;SDS011;16349;53.672;10.014;2022-08-19T12:38:28;14.85;;;12.82;;
29362;SDS011;16349;53.672;10.014;2022-08-19T12:40:55;14.52;;;12.75;;
29362;SDS011;16349;53.672;10.014;2022-08-19T12:43:22;14.88;;;12.90;;
29362;SDS011;16349;53.672;10.014;2022-08-19T12:45:49;13.95;;;12.40;;
29362;SDS011;16349;53.672;10.014;2022-08-19T12:48:18;13.82;;;12.00;;
29362;SDS011;16349;53.672;10.014;2022-08-19T12:50:44;14.88;;;12.73;;
29362;SDS011;16349;53.672;10.014;2022-08-19T12:53:12;17.05;;;12.65;;
29362;SDS011;16349;53.672;10.014;2022-08-19T12:55:39;12.50;;;11.20;;
29362;SDS011;16349;53.672;10.014;2022-08-19T12:58:06;14.93;;;12.88;;
29362;SDS011;16349;53.672;10.014;2022-08-19T13:00:32;13.38;;;12.05;;
29362;SDS011;16349;53.672;10.014;2022-08-19T13:02:59;13.43;;;12.10;;
29362;SDS011;16349;53.672;10.014;2022-08-19T13:05:29;13.43;;;11.95;;
29362;SDS011;16349;53.672;10.014;2022-08-19T13:07:58;12.70;;;11.50;;
29362;SDS011;16349;53.672;10.014;2022-08-19T13:10:28;14.35;;;11.80;;
29362;SDS011;16349;53.672;10.014;2022-08-19T13:12:56;12.75;;;11.45;;
29362;SDS011;16349;53.672;10.014;2022-08-19T13:15:25;12.05;;;10.75;;
29362;SDS011;16349;53.672;10.014;2022-08-19T13:17:53;12.27;;;10.95;;
29362;SDS011;16349;53.672;10.014;2022-08-19T13:20:21;12.45;;;11.15;;
29362;SDS011;16349;53.672;10.014;2022-08-19T13:22:49;11.50;;;10.00;;
29362;SDS011;16349;53.672;10.014;2022-08-19T13:25:17;16.17;;;11.98;;
29362;SDS011;16349;53.672;10.014;2022-08-19T13:27:44;12.05;;;10.82;;
29362;SDS011;16349;53.672;10.014;2022-08-19T13:30:12;11.75;;;10.15;;
29362;SDS011;16349;53.672;10.014;2022-08-19T13:32:58;12.50;;;11.20;;
29362;SDS011;16349;53.672;10.014;2022-08-19T13:35:39;12.43;;;11.18;;
29362;SDS011;16349;53.672;10.014;2022-08-19T13:38:09;11.20;;;10.00;;
29362;SDS011;16349;53.672;10.014;2022-08-19T13:40:37;12.70;;;11.43;;
29362;SDS011;16349;53.672;10.014;2022-08-19T13:43:05;12.05;;;10.85;;
29362;SDS011;16349;53.672;10.014;2022-08-19T13:45:32;11.77;;;10.63;;
29362;SDS011;16349;53.672;10.014;2022-08-19T13:48:00;12.07;;;10.65;;
29362;SDS011;16349;53.672;10.014;2022-08-19T13:50:32;12.10;;;10.90;;
29362;SDS011;16349;53.672;10.014;2022-08-19T13:53:00;12.23;;;11.02;;
29362;SDS011;16349;53.672;10.014;2022-08-19T13:55:29;11.25;;;10.10;;
29362;SDS011;16349;53.672;10.014;2022-08-19T13:57:56;10.82;;;9.80;;
29362;SDS011;16349;53.672;10.014;2022-08-19T14:00:26;11.88;;;10.00;;
29362;SDS011;16349;53.672;10.014;2022-08-19T14:02:55;9.82;;;8.82;;
29362;SDS011;16349;53.672;10.014;2022-08-19T14:05:23;10.07;;;9.15;;
29362;SDS011;16349;53.672;10.014;2022-08-19T14:07:52;9.90;;;9.10;;
29362;SDS011;16349;53.672;10.014;2022-08-19T14:10:19;11.13;;;10.02;;
29362;SDS011;16349;53.672;10.014;2022-08-19T14:12:49;9.45;;;8.65;;
29362;SDS011;16349;53.672;10.014;2022-08-19T14:15:20;10.10;;;9.25;;
29362;SDS011;16349;53.672;10.014;2022-08-19T14:17:48;9.57;;;8.68;;